Time;durP1;ratioP1;P1;durP2;ratioP2;P2;SDS_P1;SDS_P2;PMS_P1;PMS_P2;Temp;Humidity;BMP_temperature;BMP_pressure;BME280_temperature;BME280_humidity;BME280_pressure;Samples;Min_cycle;Max_cycle;Signal;HPM_P1;HPM_P2
2022/04/26 03:37:05;;;;;;;;;;;;;;;-144.59;100.00;62238.38;5055777;28;901;-72
2022/04/26 03:39:34;;;;;;;;;;;;;;;-144.59;100.00;62238.38;5054738;28;958;-72
2022/04/26 03:42:02;;;;;;;;;;;;;;;-144.59;100.00;62238.38;5055296;28;1217;-72
2022/04/26 03:44:29;;;;;;;;;;;;;;;-144.59;100.00;62238.38;5059672;28;2134;-72
2022/04/26 03:46:55;;;;;;;;;;;;;;;-144.59;100.00;62238.38;5075084;28;874;-72
2022/04/26 03:49:22;;;;;;;;;;;;;;;-144.59;100.00;62238.38;5074277;28;1898;-72
2022/04/26 03:51:48;;;;;;;;;;;;;;;-144.59;100.00;62238.38;5074662;28;1196;-72
2022/04/26 03:54:14;;;;;;;;;;;;;;;-144.59;100.00;62238.38;5059232;28;2199;-72
2022/04/26 03:56:40;;;;;;;;;;;;;;;-144.59;100.00;62238.38;5055536;28;2197;-72
2022/04/26 03:59:06;;;;;;;;;;;;;;;-144.59;100.00;62238.38;5054697;28;826;-72
2022/04/26 04:01:32;;;;;;;;;;;;;;;-144.59;100.00;62238.38;5054902;28;1212;-72
2022/04/26 04:03:58;;;;;;;;;;;;;;;-144.59;100.00;62238.38;5055263;28;1016;-72
2022/04/26 04:06:24;;;;;;;;;;;;;;;-144.59;100.00;62238.38;5054722;28;807;-72
2022/04/26 04:08:50;;;;;;;;;;;;;;;-144.59;100.00;62238.38;5055462;28;2234;-72
2022/04/26 04:11:16;;;;;;;;;;;;;;;-144.59;100.00;62238.38;5075264;28;1205;-72
2022/04/26 04:13:42;;;;;;;;;;;;;;;-144.59;100.00;62238.38;5075042;28;894;-72
2022/04/26 04:16:08;;;;;;;;;;;;;;;-144.59;100.00;62238.38;5075336;28;935;-72
2022/04/26 04:21:18;;;;;;;;;;;;;;;-144.59;100.00;62238.38;5074888;28;1275;-72
2022/04/26 04:23:44;;;;;;;;;;;;;;;-144.59;100.00;62238.38;5069343;28;2176;-72
2022/04/26 04:26:10;;;;;;;;;;;;;;;-144.59;100.00;62238.38;5054749;28;870;-72
2022/04/26 04:28:36;;;;;;;;;;;;;;;-144.59;100.00;62238.38;5054218;28;1918;-72
2022/04/26 04:31:03;;;;;;;;;;;;;;;-144.59;100.00;62238.38;5054790;28;1244;-72
2022/04/26 04:33:28;;;;;;;;;;;;;;;-144.59;100.00;62238.38;5054668;28;945;-72
2022/04/26 04:35:54;;;;;;;;;;;;;;;-144.59;100.00;62238.38;5054452;28;900;-72
2022/04/26 04:38:20;;;;;;;;;;;;;;;-144.59;100.00;62238.38;5057509;28;2094;-72
2022/04/26 04:40:47;;;;;;;;;;;;;;;-144.59;100.00;62238.38;5073975;28;2154;-72
2022/04/26 04:43:13;;;;;;;;;;;;;;;-144.59;100.00;62238.38;5074560;28;798;-72
2022/04/26 04:45:40;;;;;;;;;;;;;;;-144.59;100.00;62238.38;5074383;28;872;-72
2022/04/26 04:48:06;;;;;;;;;;;;;;;-144.59;100.00;62238.38;5074374;28;1889;-72
2022/04/26 04:50:33;;;;;;;;;;;;;;;-144.59;100.00;62238.38;5073555;28;1165;-72
2022/04/26 04:52:59;;;;;;;;;;;;;;;-144.59;100.00;62238.38;5072652;28;2146;-72
2022/04/26 04:55:25;;;;;;;;;;;;;;;-144.59;100.00;62238.38;5074524;28;889;-72
2022/04/26 04:57:51;;;;;;;;;;;;;;;-144.59;100.00;62238.38;5074445;28;976;-72
2022/04/26 05:00:17;;;;;;;;;;;;;;;-144.59;100.00;62238.38;5073454;28;1262;-72
2022/04/26 05:02:44;;;;;;;;;;;;;;;-144.59;100.00;62238.38;5075630;28;888;-72
2022/04/26 05:05:10;;;;;;;;;;;;;;;-144.59;100.00;62238.38;5077979;28;859;-72
2022/04/26 05:07:37;;;;;;;;;;;;;;;-144.59;100.00;62238.38;5069823;28;2166;-72
2022/04/26 05:10:04;;;;;;;;;;;;;;;-144.59;100.00;62238.38;5057865;28;1195;-72
2022/04/26 05:12:30;;;;;;;;;;;;;;;-144.59;100.00;62238.38;5058347;28;759;-72
2022/04/26 05:14:56;;;;;;;;;;;;;;;-144.59;100.00;62238.38;5075953;28;2110;-72
2022/04/26 05:17:22;;;;;;;;;;;;;;;-144.59;100.00;62238.38;5078300;28;878;-72
2022/04/26 05:19:48;;;;;;;;;;;;;;;-144.59;100.00;62238.38;5077873;28;1000;-72
2022/04/26 05:22:14;;;;;;;;;;;;;;;-144.59;100.00;62238.38;5066905;28;2193;-72
2022/04/26 05:24:54;;;;;;;;;;;;;;;-144.59;100.00;62238.38;5057736;28;822;-72
2022/04/26 05:27:20;;;;;;;;;;;;;;;-144.59;100.00;62238.38;5058146;28;840;-72
2022/04/26 05:29:46;;;;;;;;;;;;;;;-144.59;100.00;62238.38;5057371;28;1951;-72
2022/04/26 05:32:12;;;;;;;;;;;;;;;-144.59;100.00;62238.38;5058854;28;2216;-72
2022/04/26 05:34:38;;;;;;;;;;;;;;;-144.59;100.00;62238.38;5057382;28;2170;-72
2022/04/26 05:37:04;;;;;;;;;;;;;;;-144.59;100.00;62238.38;5057733;28;906;-72
2022/04/26 05:39:30;;;;;;;;;;;;;;;-144.59;100.00;62238.38;5057125;28;810;-72
2022/04/26 05:41:56;;;;;;;;;;;;;;;-144.59;100.00;62238.38;5057438;28;1189;-72
2022/04/26 05:44:22;;;;;;;;;;;;;;;-144.59;100.00;62238.38;5057583;28;883;-72
2022/04/26 05:46:48;;;;;;;;;;;;;;;-144.59;100.00;62238.38;5059378;28;2022;-72
2022/04/26 05:49:14;;;;;;;;;;;;;;;-144.59;100.00;62238.38;5076725;28;1902;-72
2022/04/26 05:51:40;;;;;;;;;;;;;;;-144.59;100.00;62238.38;5077609;28;1259;-72
2022/04/26 05:54:06;;;;;;;;;;;;;;;-144.59;100.00;62238.38;5063058;28;2138;-72
2022/04/26 05:56:32;;;;;;;;;;;;;;;-144.59;100.00;62238.38;5057367;28;797;-72
2022/04/26 05:58:58;;;;;;;;;;;;;;;-144.59;100.00;62238.38;5056732;28;811;-72
2022/04/26 06:01:24;;;;;;;;;;;;;;;-144.59;100.00;62238.38;5061354;28;2100;-72
2022/04/26 06:03:50;;;;;;;;;;;;;;;-144.59;100.00;62238.38;5077290;28;878;-72
2022/04/26 06:06:16;;;;;;;;;;;;;;;-144.59;100.00;62238.38;5077628;28;798;-72
2022/04/26 06:08:42;;;;;;;;;;;;;;;-144.59;100.00;62238.38;5076844;28;1956;-72
2022/04/26 06:11:08;;;;;;;;;;;;;;;-144.59;100.00;62238.38;5077064;28;1197;-72
2022/04/26 06:13:34;;;;;;;;;;;;;;;-144.59;100.00;62238.38;5075336;28;776;-72
2022/04/26 06:16:00;;;;;;;;;;;;;;;-144.59;100.00;62238.38;5070792;28;2166;-72
2022/04/26 06:18:26;;;;;;;;;;;;;;;-144.59;100.00;62238.38;5056252;28;793;-72
2022/04/26 06:20:52;;;;;;;;;;;;;;;-144.59;100.00;62238.38;5057324;28;1181;-72
2022/04/26 06:23:18;;;;;;;;;;;;;;;-144.59;100.00;62238.38;5063115;28;2135;-72
2022/04/26 06:25:44;;;;;;;;;;;;;;;-144.59;100.00;62238.38;5076608;28;770;-72
2022/04/26 06:28:10;;;;;;;;;;;;;;;-144.59;100.00;62238.38;5056589;28;2268;-73
2022/04/26 06:30:38;;;;;;;;;;;;;;;-144.59;100.00;62238.38;5056871;28;1173;-72
2022/04/26 06:33:05;;;;;;;;;;;;;;;-144.59;100.00;62238.38;5056606;28;798;-72
2022/04/26 06:35:31;;;;;;;;;;;;;;;-144.59;100.00;62238.38;5056540;28;934;-72
2022/04/26 06:37:58;;;;;;;;;;;;;;;-144.59;100.00;62238.38;5064819;28;2109;-72
2022/04/26 06:40:25;;;;;;;;;;;;;;;-144.59;100.00;62238.38;5076140;28;1276;-72
2022/04/26 06:42:51;;;;;;;;;;;;;;;-144.59;100.00;62238.38;5076625;28;822;-72
2022/04/26 06:45:17;;;;;;;;;;;;;;;-144.59;100.00;62238.38;5076298;28;964;-72
2022/04/26 06:47:44;;;;;;;;;;;;;;;-144.59;100.00;62238.38;5076402;28;904;-72
2022/04/26 06:50:10;;;;;;;;;;;;;;;-144.59;100.00;62238.38;5075668;28;1957;-72
2022/04/26 06:52:36;;;;;;;;;;;;;;;-144.59;100.00;62238.38;5075013;28;2122;-72
2022/04/26 06:55:03;;;;;;;;;;;;;;;-144.59;100.00;62238.38;5056159;28;815;-72
2022/04/26 06:57:29;;;;;;;;;;;;;;;-144.59;100.00;62238.38;5056026;28;822;-72
2022/04/26 06:59:55;;;;;;;;;;;;;;;-144.59;100.00;62238.38;5055683;28;885;-72
2022/04/26 07:02:22;;;;;;;;;;;;;;;-144.59;100.00;62238.38;5055949;28;1229;-72
2022/04/26 07:04:48;;;;;;;;;;;;;;;-144.59;100.00;62238.38;5056432;28;848;-72
2022/04/26 07:07:14;;;;;;;;;;;;;;;-144.59;100.00;62238.38;5057960;28;2773;-72
2022/04/26 07:09:40;;;;;;;;;;;;;;;-144.59;100.00;62238.38;5075247;28;1898;-72
2022/04/26 07:12:07;;;;;;;;;;;;;;;-144.59;100.00;62238.38;5075822;28;1279;-72
2022/04/26 07:14:33;;;;;;;;;;;;;;;-144.59;100.00;62238.38;5076164;28;885;-72
2022/04/26 07:17:01;;;;;;;;;;;;;;;-144.59;100.00;62238.38;5076039;28;803;-72
2022/04/26 07:19:28;;;;;;;;;;;;;;;-144.59;100.00;62238.38;5075594;28;790;-72
2022/04/26 07:21:54;;;;;;;;;;;;;;;-144.59;100.00;62238.38;5071488;28;2238;-72
2022/04/26 07:24:20;;;;;;;;;;;;;;;-144.59;100.00;62238.38;5055117;28;840;-72
2022/04/26 07:26:46;;;;;;;;;;;;;;;-144.59;100.00;62238.38;5055160;28;834;-72
2022/04/26 07:29:14;;;;;;;;;;;;;;;-144.59;100.00;62238.38;5054829;28;1902;-72
2022/04/26 07:31:40;;;;;;;;;;;;;;;-144.59;100.00;62238.38;5063977;28;2222;-72
2022/04/26 07:34:21;;;;;;;;;;;;;;;-144.59;100.00;62238.38;5063181;28;2472;-73
2022/04/26 07:36:59;;;;;;;;;;;;;;;-144.59;100.00;62238.38;5060144;28;1640;-72
2022/04/26 07:39:25;;;;;;;;;;;;;;;-144.59;100.00;62238.38;5058303;28;2473;-72
2022/04/26 07:41:51;;;;;;;;;;;;;;;-144.59;100.00;62238.38;5058301;28;2094;-72
2022/04/26 07:44:18;;;;;;;;;;;;;;;-144.59;100.00;62238.38;5063694;28;1970;-72
2022/04/26 07:46:47;;;;;;;;;;;;;;;-144.59;100.00;62238.38;5073802;28;2248;-72
2022/04/26 07:49:15;;;;;;;;;;;;;;;-144.59;100.00;62238.38;5068795;28;2196;-72
2022/04/26 07:51:42;;;;;;;;;;;;;;;-144.59;100.00;62238.38;5054935;28;1279;-72
2022/04/26 07:54:09;;;;;;;;;;;;;;;-144.59;100.00;62238.38;5054827;28;1071;-72
2022/04/26 07:56:35;;;;;;;;;;;;;;;-144.59;100.00;62238.38;5055469;28;808;-72
2022/04/26 07:59:03;;;;;;;;;;;;;;;-144.59;100.00;62238.38;5054765;28;837;-72
2022/04/26 08:01:31;;;;;;;;;;;;;;;-144.59;100.00;62238.38;5061151;28;2189;-72
2022/04/26 08:03:57;;;;;;;;;;;;;;;-144.59;100.00;62238.38;5074790;28;851;-72
2022/04/26 08:06:24;;;;;;;;;;;;;;;-144.59;100.00;62238.38;5074469;28;828;-72
2022/04/26 08:08:50;;;;;;;;;;;;;;;-144.59;100.00;62238.38;5074281;28;1898;-72
2022/04/26 08:11:16;;;;;;;;;;;;;;;-144.59;100.00;62238.38;5075032;28;1316;-72
2022/04/26 08:13:43;;;;;;;;;;;;;;;-144.59;100.00;62238.38;5073955;28;819;-72
2022/04/26 08:16:09;;;;;;;;;;;;;;;-144.59;100.00;62238.38;5074657;28;870;-72
2022/04/26 08:18:36;;;;;;;;;;;;;;;-144.59;100.00;62238.38;5074102;28;922;-72
2022/04/26 08:21:05;;;;;;;;;;;;;;;-144.59;100.00;62238.38;5074215;28;1200;-72
2022/04/26 08:23:31;;;;;;;;;;;;;;;-144.59;100.00;62238.38;5061966;28;2200;-72
2022/04/26 08:28:43;;;;;;;;;;;;;;;-144.59;100.00;62238.38;5054254;28;1955;-72
2022/04/26 08:31:09;;;;;;;;;;;;;;;-144.59;100.00;62238.38;5054170;28;1205;-72
2022/04/26 08:33:35;;;;;;;;;;;;;;;-144.59;100.00;62238.38;5054421;28;805;-72
2022/04/26 08:36:01;;;;;;;;;;;;;;;-144.59;100.00;62238.38;5055284;28;1995;-72
2022/04/26 08:38:28;;;;;;;;;;;;;;;-144.59;100.00;62238.38;5053764;28;2114;-72
2022/04/26 08:40:53;;;;;;;;;;;;;;;-144.59;100.00;62238.38;5054609;28;1205;-72
2022/04/26 08:43:19;;;;;;;;;;;;;;;-144.59;100.00;62238.38;5054383;28;834;-72
2022/04/26 08:45:46;;;;;;;;;;;;;;;-144.59;100.00;62238.38;5054452;28;830;-72
2022/04/26 08:51:03;;;;;;;;;;;;;;;-144.59;100.00;62238.38;5054315;28;1905;-72
2022/04/26 08:53:34;;;;;;;;;;;;;;;-144.59;100.00;62238.38;5055531;28;2057;-72
2022/04/26 08:56:03;;;;;;;;;;;;;;;-144.59;100.00;62238.38;5054144;28;904;-72
2022/04/26 08:58:33;;;;;;;;;;;;;;;-144.59;100.00;62238.38;5053596;28;794;-72
2022/04/26 09:01:16;;;;;;;;;;;;;;;-144.59;100.00;62238.38;5054035;28;1170;-72
2022/04/26 09:03:54;;;;;;;;;;;;;;;-144.59;100.00;62238.38;5054484;28;2117;-72
2022/04/26 09:06:21;;;;;;;;;;;;;;;-144.59;100.00;62238.38;5062559;28;3100;-72
2022/04/26 09:08:48;;;;;;;;;;;;;;;-144.59;100.00;62238.38;5053384;28;1894;-72
2022/04/26 09:11:24;;;;;;;;;;;;;;;-144.59;100.00;62238.38;5066183;28;2197;-72
2022/04/26 09:13:51;;;;;;;;;;;;;;;-144.59;100.00;62238.38;5081680;28;1316;-72
2022/04/26 09:16:19;;;;;;;;;;;;;;;-144.59;100.00;62238.38;5094748;28;812;-72
2022/04/26 09:19:00;;;;;;;;;;;;;;;-144.59;100.00;62238.38;5094040;28;872;-72
2022/04/26 09:21:28;;;;;;;;;;;;;;;-144.59;100.00;62238.38;5078672;28;1299;-72
2022/04/26 09:24:03;;;;;;;;;;;;;;;-144.59;100.00;62238.38;5072596;28;2076;-72
2022/04/26 09:26:34;;;;;;;;;;;;;;;-144.59;100.00;62238.38;5063009;28;2355;-72
2022/04/26 09:29:00;;;;;;;;;;;;;;;-144.59;100.00;62238.38;5073212;28;1890;-72
2022/04/26 09:31:28;;;;;;;;;;;;;;;-144.59;100.00;62238.38;5059684;28;2173;-73
2022/04/26 09:34:04;;;;;;;;;;;;;;;-144.59;100.00;62238.38;5054034;28;771;-72
2022/04/26 09:36:35;;;;;;;;;;;;;;;-144.59;100.00;62238.38;5054075;28;832;-72
2022/04/26 09:39:04;;;;;;;;;;;;;;;-144.59;100.00;62238.38;5053957;28;763;-73
2022/04/26 09:41:31;;;;;;;;;;;;;;;-144.59;100.00;62238.38;5053836;28;1165;-73
2022/04/26 09:44:05;;;;;;;;;;;;;;;-144.59;100.00;62238.38;5070878;28;2221;-72
2022/04/26 09:46:40;;;;;;;;;;;;;;;-144.59;100.00;62238.38;5073884;28;747;-72
2022/04/26 09:49:11;;;;;;;;;;;;;;;-144.59;100.00;62238.38;5075072;28;1967;-72
2022/04/26 09:51:37;;;;;;;;;;;;;;;-144.59;100.00;62238.38;5077568;28;1260;-73
2022/04/26 09:54:04;;;;;;;;;;;;;;;-144.59;100.00;62238.38;5077225;28;794;-72
2022/04/26 09:56:31;;;;;;;;;;;;;;;-144.59;100.00;62238.38;5076379;28;814;-72
2022/04/26 09:59:00;;;;;;;;;;;;;;;-144.59;100.00;62238.38;5068646;28;1982;-72
2022/04/26 10:01:39;;;;;;;;;;;;;;;-144.59;100.00;62238.38;5060367;28;2363;-72
2022/04/26 10:04:08;;;;;;;;;;;;;;;-144.59;100.00;62238.38;5066218;28;2099;-72
2022/04/26 10:06:36;;;;;;;;;;;;;;;-144.59;100.00;62238.38;5075383;28;1948;-72
2022/04/26 10:09:03;;;;;;;;;;;;;;;-144.59;100.00;62238.38;5067715;28;2721;-73
2022/04/26 10:11:30;;;;;;;;;;;;;;;-144.59;100.00;62238.38;5077495;28;1177;-72
2022/04/26 10:13:58;;;;;;;;;;;;;;;-144.59;100.00;62238.38;5079425;28;800;-73
2022/04/26 10:16:24;;;;;;;;;;;;;;;-144.59;100.00;62238.38;5077337;28;787;-72
2022/04/26 10:18:59;;;;;;;;;;;;;;;-144.59;100.00;62238.38;5076421;28;915;-72
2022/04/26 10:21:25;;;;;;;;;;;;;;;-144.59;100.00;62238.38;5076914;28;1236;-72
2022/04/26 10:23:52;;;;;;;;;;;;;;;-144.59;100.00;62238.38;5075139;28;2069;-72
2022/04/26 10:26:24;;;;;;;;;;;;;;;-144.59;100.00;62238.38;5061713;28;2174;-72
2022/04/26 10:28:52;;;;;;;;;;;;;;;-144.59;100.00;62238.38;5056205;28;750;-72
2022/04/26 10:31:18;;;;;;;;;;;;;;;-144.59;100.00;62238.38;5057539;28;2082;-72
2022/04/26 10:33:45;;;;;;;;;;;;;;;-144.59;100.00;62238.38;5057794;28;2104;-73
2022/04/26 10:36:20;;;;;;;;;;;;;;;-144.59;100.00;62238.38;5056600;28;819;-72
2022/04/26 10:39:12;;;;;;;;;;;;;;;-144.59;100.00;62238.38;5056111;28;833;-72
2022/04/26 10:41:39;;;;;;;;;;;;;;;-144.59;100.00;62238.38;5056438;28;1351;-72
2022/04/26 10:44:15;;;;;;;;;;;;;;;-144.59;100.00;62238.38;5063727;28;2153;-72
2022/04/26 10:46:50;;;;;;;;;;;;;;;-144.59;100.00;62238.38;5058253;28;2166;-72
2022/04/26 10:49:25;;;;;;;;;;;;;;;-144.59;100.00;62238.38;5062011;28;2209;-72
2022/04/26 10:51:52;;;;;;;;;;;;;;;-144.59;100.00;62238.38;5076170;28;1173;-73
2022/04/26 10:54:46;;;;;;;;;;;;;;;-144.59;100.00;62238.38;5076168;28;901;-72
2022/04/26 10:57:17;;;;;;;;;;;;;;;-144.59;100.00;62238.38;5075962;28;761;-73
2022/04/26 10:59:44;;;;;;;;;;;;;;;-144.59;100.00;62238.38;5075351;28;744;-73
2022/04/26 11:02:15;;;;;;;;;;;;;;;-144.59;100.00;62238.38;5065224;28;1951;-72
2022/04/26 11:04:41;;;;;;;;;;;;;;;-144.59;100.00;62238.38;5076074;28;802;-73
2022/04/26 11:07:15;;;;;;;;;;;;;;;-144.59;100.00;62238.38;5075038;28;2300;-72
2022/04/26 11:09:49;;;;;;;;;;;;;;;-144.59;100.00;62238.38;5055221;28;2191;-72
2022/04/26 11:12:19;;;;;;;;;;;;;;;-144.59;100.00;62238.38;5056008;28;1242;-72
2022/04/26 11:14:46;;;;;;;;;;;;;;;-144.59;100.00;62238.38;5055810;28;869;-72
2022/04/26 11:17:14;;;;;;;;;;;;;;;-144.59;100.00;62238.38;5061018;28;2246;-72
2022/04/26 11:19:48;;;;;;;;;;;;;;;-144.59;100.00;62238.38;5067134;28;2299;-73
2022/04/26 11:22:15;;;;;;;;;;;;;;;-144.59;100.00;62238.38;5055984;28;1300;-73
2022/04/26 11:30:23;;;;;;;;;;;;;;;-144.59;100.00;62238.38;5057263;28;2073;-73
2022/04/26 11:32:50;;;;;;;;;;;;;;;-144.59;100.00;62238.38;5064024;28;2403;-73
2022/04/26 11:35:19;;;;;;;;;;;;;;;-144.59;100.00;62238.38;5075485;28;981;-72
2022/04/26 11:37:52;;;;;;;;;;;;;;;-144.59;100.00;62238.38;5060582;28;2158;-73
2022/04/26 11:40:26;;;;;;;;;;;;;;;-144.59;100.00;62238.38;5054980;28;1189;-72
2022/04/26 11:42:54;;;;;;;;;;;;;;;-144.59;100.00;62238.38;5055274;28;899;-73
2022/04/26 11:45:21;;;;;;;;;;;;;;;-144.59;100.00;62238.38;5055276;28;803;-73
2022/04/26 11:47:49;;;;;;;;;;;;;;;-144.59;100.00;62238.38;5055022;28;794;-73
2022/04/26 11:50:20;;;;;;;;;;;;;;;-144.59;100.00;62238.38;5072425;28;2228;-72
2022/04/26 11:52:48;;;;;;;;;;;;;;;-144.59;100.00;62238.38;5075108;28;924;-72
2022/04/26 11:55:20;;;;;;;;;;;;;;;-144.59;100.00;62238.38;5074171;28;785;-73
2022/04/26 11:57:46;;;;;;;;;;;;;;;-144.59;100.00;62238.38;5061812;28;2399;-73
2022/04/26 12:00:17;;;;;;;;;;;;;;;-144.59;100.00;62238.38;5074465;28;1177;-73
2022/04/26 12:02:47;;;;;;;;;;;;;;;-144.59;100.00;62238.38;5067818;28;2086;-73
2022/04/26 12:05:18;;;;;;;;;;;;;;;-144.59;100.00;62238.38;5055174;28;770;-73
2022/04/26 12:07:44;;;;;;;;;;;;;;;-144.59;100.00;62238.38;5054908;28;904;-73
2022/04/26 12:10:27;;;;;;;;;;;;;;;-144.59;100.00;62238.38;5064900;28;1959;-73
2022/04/26 12:12:58;;;;;;;;;;;;;;;-144.59;100.00;62238.38;5074682;28;825;-73
2022/04/26 12:15:33;;;;;;;;;;;;;;;-144.59;100.00;62238.38;5074772;28;798;-73
2022/04/26 12:18:09;;;;;;;;;;;;;;;-144.59;100.00;62238.38;5074736;28;768;-73
2022/04/26 12:20:54;;;;;;;;;;;;;;;-144.59;100.00;62238.38;5064948;28;1961;-73
2022/04/26 12:23:21;;;;;;;;;;;;;;;-144.59;100.00;62238.38;5074227;28;2288;-73
2022/04/26 12:26:12;;;;;;;;;;;;;;;-144.59;100.00;62238.38;5071380;28;2262;-73
2022/04/26 12:28:46;;;;;;;;;;;;;;;-144.59;100.00;62238.38;5056079;28;2206;-73
2022/04/26 12:31:26;;;;;;;;;;;;;;;-144.59;100.00;62238.38;5054428;28;1948;-73
2022/04/26 12:34:12;;;;;;;;;;;;;;;-144.59;100.00;62238.38;5054408;28;796;-73
2022/04/26 12:37:07;;;;;;;;;;;;;;;-144.59;100.00;62238.38;5086015;28;1311;-73
2022/04/26 12:39:38;;;;;;;;;;;;;;;-144.59;100.00;62238.38;5073935;28;1069;-72
2022/04/26 12:42:05;;;;;;;;;;;;;;;-144.59;100.00;62238.38;5065027;28;2445;-73
2022/04/26 12:44:31;;;;;;;;;;;;;;;-144.59;100.00;62238.38;5070769;28;2173;-72
2022/04/26 12:52:56;;;;;;;;;;;;;;;-144.59;100.00;62238.38;5074878;28;751;-73
2022/04/26 12:55:38;;;;;;;;;;;;;;;-144.59;100.00;62238.38;5074404;28;786;-73
2022/04/26 12:58:06;;;;;;;;;;;;;;;-144.59;100.00;62238.38;5074026;28;892;-73
2022/04/26 13:00:35;;;;;;;;;;;;;;;-144.59;100.00;62238.38;5061073;28;2066;-72
2022/04/26 13:03:04;;;;;;;;;;;;;;;-144.59;100.00;62238.38;5059368;28;2130;-73
2022/04/26 13:05:41;;;;;;;;;;;;;;;-144.59;100.00;62238.38;5053897;28;890;-72
2022/04/26 13:08:09;;;;;;;;;;;;;;;-144.59;100.00;62238.38;5054296;28;809;-73
2022/04/26 13:10:35;;;;;;;;;;;;;;;-144.59;100.00;62238.38;5053819;28;1898;-73
2022/04/26 13:13:01;;;;;;;;;;;;;;;-144.59;100.00;62238.38;5054307;28;1011;-73
2022/04/26 13:15:27;;;;;;;;;;;;;;;-144.59;100.00;62238.38;5055340;28;2014;-73
2022/04/26 13:17:54;;;;;;;;;;;;;;;-144.59;100.00;62238.38;5054033;28;787;-72
2022/04/26 13:20:20;;;;;;;;;;;;;;;-144.59;100.00;62238.38;5053425;28;1196;-73
2022/04/26 13:22:46;;;;;;;;;;;;;;;-144.59;100.00;62238.38;5054528;28;831;-73
2022/04/26 13:25:12;;;;;;;;;;;;;;;-144.59;100.00;62238.38;5061660;28;2058;-73
2022/04/26 13:27:38;;;;;;;;;;;;;;;-144.59;100.00;62238.38;5077975;28;837;-73
2022/04/26 13:30:06;;;;;;;;;;;;;;;-144.59;100.00;62238.38;5064420;28;2129;-72
2022/04/26 13:32:32;;;;;;;;;;;;;;;-144.59;100.00;62238.38;5078156;28;818;-73
2022/04/26 13:34:59;;;;;;;;;;;;;;;-144.59;100.00;62238.38;5068936;28;2289;-73
2022/04/26 13:37:26;;;;;;;;;;;;;;;-144.59;100.00;62238.38;5058105;28;875;-73
2022/04/26 13:39:53;;;;;;;;;;;;;;;-144.59;100.00;62238.38;5060694;28;2422;-72
2022/04/26 13:42:24;;;;;;;;;;;;;;;-144.59;100.00;62238.38;5070360;28;1958;-73
2022/04/26 13:44:52;;;;;;;;;;;;;;;-144.59;100.00;62238.38;5066529;28;1954;-73
2022/04/26 13:47:19;;;;;;;;;;;;;;;-144.59;100.00;62238.38;5067378;28;2544;-73
2022/04/26 13:49:45;;;;;;;;;;;;;;;-144.59;100.00;62238.38;5057726;28;2175;-72
2022/04/26 13:52:11;;;;;;;;;;;;;;;-144.59;100.00;62238.38;5057248;28;1894;-73
2022/04/26 13:54:37;;;;;;;;;;;;;;;-144.59;100.00;62238.38;5057442;28;907;-73
2022/04/26 13:57:05;;;;;;;;;;;;;;;-144.59;100.00;62238.38;5057111;28;747;-73
2022/04/26 13:59:31;;;;;;;;;;;;;;;-144.59;100.00;62238.38;5057875;28;2188;-73
2022/04/26 14:01:57;;;;;;;;;;;;;;;-144.59;100.00;62238.38;5060583;28;2119;-72
2022/04/26 14:04:24;;;;;;;;;;;;;;;-144.59;100.00;62238.38;5077215;28;826;-73
2022/04/26 14:06:50;;;;;;;;;;;;;;;-144.59;100.00;62238.38;5076995;28;836;-73
2022/04/26 14:09:21;;;;;;;;;;;;;;;-144.59;100.00;62238.38;5075471;28;2137;-73
2022/04/26 14:11:48;;;;;;;;;;;;;;;-144.59;100.00;62238.38;5057067;28;2165;-73
2022/04/26 14:22:35;;;;;;;;;;;;;;;-144.59;100.00;62238.38;5056960;28;757;-72
2022/04/26 14:25:04;;;;;;;;;;;;;;;-144.59;100.00;62238.38;5059713;28;2046;-72
2022/04/26 14:27:31;;;;;;;;;;;;;;;-144.59;100.00;62238.38;5058190;28;1960;-72
2022/04/26 14:29:58;;;;;;;;;;;;;;;-144.59;100.00;62238.38;5066139;28;2118;-72
2022/04/26 14:32:24;;;;;;;;;;;;;;;-144.59;100.00;62238.38;5056455;28;2154;-72
2022/04/26 14:34:50;;;;;;;;;;;;;;;-144.59;100.00;62238.38;5056020;28;938;-72
2022/04/26 14:37:17;;;;;;;;;;;;;;;-144.59;100.00;62238.38;5055378;28;1010;-72
2022/04/26 14:39:43;;;;;;;;;;;;;;;-144.59;100.00;62238.38;5056973;28;2242;-73
2022/04/26 14:42:09;;;;;;;;;;;;;;;-144.59;100.00;62238.38;5056337;28;2075;-73
2022/04/26 14:44:36;;;;;;;;;;;;;;;-144.59;100.00;62238.38;5064533;28;2082;-73
2022/04/26 14:47:03;;;;;;;;;;;;;;;-144.59;100.00;62238.38;5072140;28;2248;-73
2022/04/26 14:49:30;;;;;;;;;;;;;;;-144.59;100.00;62238.38;5075607;28;895;-73
2022/04/26 14:51:56;;;;;;;;;;;;;;;-144.59;100.00;62238.38;5059129;28;2205;-73
2022/04/26 14:54:22;;;;;;;;;;;;;;;-144.59;100.00;62238.38;5056936;28;2424;-73
2022/04/26 14:56:50;;;;;;;;;;;;;;;-144.59;100.00;62238.38;5065111;28;2244;-73
2022/04/26 14:59:17;;;;;;;;;;;;;;;-144.59;100.00;62238.38;5064784;28;2225;-73
2022/04/26 15:01:46;;;;;;;;;;;;;;;-144.59;100.00;62238.38;5069567;28;1904;-73
2022/04/26 15:04:12;;;;;;;;;;;;;;;-144.59;100.00;62238.38;5095046;28;1408;-73
2022/04/26 15:06:39;;;;;;;;;;;;;;;-144.59;100.00;62238.38;5079649;28;2255;-72
2022/04/26 15:16:37;;;;;;;;;;;;;;;-144.59;100.00;62238.38;5075700;28;1909;-73
2022/04/26 15:17:20;;;;;;;;;;;;;;;-144.59;100.00;62238.38;5071262;28;2193;-74
2022/04/26 15:19:48;;;;;;;;;;;;;;;-144.59;100.00;62238.38;5055605;28;852;-73
2022/04/26 15:22:17;;;;;;;;;;;;;;;-144.59;100.00;62238.38;5055707;28;5393;-71
2022/04/26 15:24:43;;;;;;;;;;;;;;;-144.59;100.00;62238.38;5067255;28;1930;-71
2022/04/26 15:27:09;;;;;;;;;;;;;;;-144.59;100.00;62238.38;5055012;28;2068;-73
2022/04/26 15:29:35;;;;;;;;;;;;;;;-144.59;100.00;62238.38;5066973;28;1752;-73
2022/04/26 15:32:01;;;;;;;;;;;;;;;-144.59;100.00;62238.38;5075329;28;1961;-73
2022/04/26 15:34:27;;;;;;;;;;;;;;;-144.59;100.00;62238.38;5071460;28;1914;-72
2022/04/26 15:36:53;;;;;;;;;;;;;;;-144.59;100.00;62238.38;5055630;28;973;-73
2022/04/26 15:39:19;;;;;;;;;;;;;;;-144.59;100.00;62238.38;5056750;28;2093;-73
2022/04/26 15:41:45;;;;;;;;;;;;;;;-144.59;100.00;62238.38;5064425;28;2296;-73
2022/04/26 15:44:12;;;;;;;;;;;;;;;-144.59;100.00;62238.38;5055142;28;819;-73
2022/04/26 15:46:39;;;;;;;;;;;;;;;-144.59;100.00;62238.38;5071561;28;2158;-72
2022/04/26 15:49:05;;;;;;;;;;;;;;;-144.59;100.00;62238.38;5063343;28;811;-72
2022/04/26 15:51:31;;;;;;;;;;;;;;;-144.59;100.00;62238.38;5055984;28;2134;-72
2022/04/26 15:53:57;;;;;;;;;;;;;;;-144.59;100.00;62238.38;5060916;28;2021;-73
2022/04/26 15:56:23;;;;;;;;;;;;;;;-144.59;100.00;62238.38;5073363;28;2099;-72
2022/04/26 15:58:49;;;;;;;;;;;;;;;-144.59;100.00;62238.38;5065408;28;2187;-72
2022/04/26 16:01:15;;;;;;;;;;;;;;;-144.59;100.00;62238.38;5074554;28;2201;-73
2022/04/26 16:03:41;;;;;;;;;;;;;;;-144.59;100.00;62238.38;5052221;28;5999;-74
2022/04/26 16:06:07;;;;;;;;;;;;;;;-144.59;100.00;62238.38;5067927;28;5778;-73
2022/04/26 16:08:35;;;;;;;;;;;;;;;-144.59;100.00;62238.38;5069781;28;2245;-73
2022/04/26 16:22:03;;;;;;;;;;;;;;;-144.59;100.00;62238.38;5059594;28;4805;-73
2022/04/26 16:24:29;;;;;;;;;;;;;;;-144.59;100.00;62238.38;5068426;28;870;-73
2022/04/26 16:26:58;;;;;;;;;;;;;;;-144.59;100.00;62238.38;5054290;28;827;-73
2022/04/26 16:29:25;;;;;;;;;;;;;;;-144.59;100.00;62238.38;5053888;28;941;-74
2022/04/26 16:31:51;;;;;;;;;;;;;;;-144.59;100.00;62238.38;5053807;28;2250;-74
2022/04/26 16:34:17;;;;;;;;;;;;;;;-144.59;100.00;62238.38;5054113;28;926;-74
2022/04/26 16:36:43;;;;;;;;;;;;;;;-144.59;100.00;62238.38;5054264;28;996;-74
2022/04/26 16:39:09;;;;;;;;;;;;;;;-144.59;100.00;62238.38;5053587;28;806;-74
2022/04/26 16:41:36;;;;;;;;;;;;;;;-144.59;100.00;62238.38;5062028;28;2245;-74
2022/04/26 16:44:02;;;;;;;;;;;;;;;-144.59;100.00;62238.38;5065256;28;2350;-74
2022/04/26 16:46:30;;;;;;;;;;;;;;;-144.59;100.00;62238.38;5062439;28;2392;-75
2022/04/26 16:48:56;;;;;;;;;;;;;;;-144.59;100.00;62238.38;5060984;28;2354;-74
2022/04/26 16:51:22;;;;;;;;;;;;;;;-144.59;100.00;62238.38;5062187;28;2510;-74
2022/04/26 16:53:48;;;;;;;;;;;;;;;-144.59;100.00;62238.38;5071477;28;2397;-75
2022/04/26 16:56:14;;;;;;;;;;;;;;;-144.59;100.00;62238.38;5054146;28;817;-74